sensor_id;sensor_type;location;lat;lon;timestamp;P1;durP1;ratioP1;P2;durP2;ratioP2
31966;SDS011;18496;52.042;6.812;2022-07-31T00:01:17;8.05;;;2.83;;
31966;SDS011;18496;52.042;6.812;2022-07-31T00:03:20;5.65;;;2.60;;
31966;SDS011;18496;52.042;6.812;2022-07-31T00:05:27;3.97;;;2.58;;
31966;SDS011;18496;52.042;6.812;2022-07-31T00:07:30;5.78;;;2.50;;
31966;SDS011;18496;52.042;6.812;2022-07-31T00:09:34;6.90;;;2.42;;
31966;SDS011;18496;52.042;6.812;2022-07-31T00:11:38;11.82;;;3.05;;
31966;SDS011;18496;52.042;6.812;2022-07-31T00:13:43;7.05;;;2.80;;
31966;SDS011;18496;52.042;6.812;2022-07-31T00:15:47;8.30;;;3.13;;
31966;SDS011;18496;52.042;6.812;2022-07-31T00:17:50;6.43;;;2.45;;
31966;SDS011;18496;52.042;6.812;2022-07-31T00:19:54;6.55;;;2.50;;
31966;SDS011;18496;52.042;6.812;2022-07-31T00:21:58;5.90;;;2.63;;
31966;SDS011;18496;52.042;6.812;2022-07-31T00:24:02;6.57;;;3.17;;
31966;SDS011;18496;52.042;6.812;2022-07-31T00:26:06;11.75;;;2.97;;
31966;SDS011;18496;52.042;6.812;2022-07-31T00:28:09;9.38;;;3.42;;
31966;SDS011;18496;52.042;6.812;2022-07-31T00:30:13;7.03;;;3.00;;
31966;SDS011;18496;52.042;6.812;2022-07-31T00:32:18;4.18;;;2.70;;
31966;SDS011;18496;52.042;6.812;2022-07-31T00:34:22;7.57;;;2.70;;
31966;SDS011;18496;52.042;6.812;2022-07-31T00:36:26;8.32;;;3.30;;
31966;SDS011;18496;52.042;6.812;2022-07-31T00:38:29;3.65;;;2.70;;
31966;SDS011;18496;52.042;6.812;2022-07-31T00:40:33;3.10;;;2.65;;
31966;SDS011;18496;52.042;6.812;2022-07-31T00:42:37;5.78;;;2.55;;
31966;SDS011;18496;52.042;6.812;2022-07-31T00:44:41;8.57;;;2.70;;
31966;SDS011;18496;52.042;6.812;2022-07-31T00:46:44;5.63;;;2.90;;
31966;SDS011;18496;52.042;6.812;2022-07-31T00:48:48;3.72;;;3.17;;
31966;SDS011;18496;52.042;6.812;2022-07-31T00:50:52;4.43;;;2.67;;
31966;SDS011;18496;52.042;6.812;2022-07-31T00:52:55;7.10;;;3.47;;
31966;SDS011;18496;52.042;6.812;2022-07-31T00:54:59;4.13;;;2.90;;
31966;SDS011;18496;52.042;6.812;2022-07-31T00:57:03;6.72;;;3.25;;
31966;SDS011;18496;52.042;6.812;2022-07-31T00:59:06;4.95;;;3.05;;
31966;SDS011;18496;52.042;6.812;2022-07-31T01:01:10;3.92;;;3.08;;
31966;SDS011;18496;52.042;6.812;2022-07-31T01:03:14;7.18;;;2.97;;
31966;SDS011;18496;52.042;6.812;2022-07-31T01:05:18;3.53;;;3.20;;
31966;SDS011;18496;52.042;6.812;2022-07-31T01:07:22;7.03;;;3.30;;
31966;SDS011;18496;52.042;6.812;2022-07-31T01:09:26;9.95;;;3.33;;
31966;SDS011;18496;52.042;6.812;2022-07-31T01:11:37;3.75;;;2.78;;
31966;SDS011;18496;52.042;6.812;2022-07-31T01:13:46;5.57;;;2.85;;
31966;SDS011;18496;52.042;6.812;2022-07-31T01:16:02;6.30;;;3.63;;
31966;SDS011;18496;52.042;6.812;2022-07-31T01:18:10;3.97;;;2.78;;
31966;SDS011;18496;52.042;6.812;2022-07-31T01:20:16;3.08;;;2.65;;
31966;SDS011;18496;52.042;6.812;2022-07-31T01:24:48;8.43;;;3.47;;
31966;SDS011;18496;52.042;6.812;2022-07-31T01:27:17;4.97;;;2.78;;
31966;SDS011;18496;52.042;6.812;2022-07-31T01:29:45;7.35;;;3.65;;
31966;SDS011;18496;52.042;6.812;2022-07-31T01:31:56;4.80;;;3.53;;
31966;SDS011;18496;52.042;6.812;2022-07-31T01:36:31;7.10;;;3.03;;
31966;SDS011;18496;52.042;6.812;2022-07-31T01:38:39;7.40;;;3.22;;
31966;SDS011;18496;52.042;6.812;2022-07-31T01:40:58;6.28;;;3.38;;
31966;SDS011;18496;52.042;6.812;2022-07-31T01:43:07;5.10;;;2.90;;
31966;SDS011;18496;52.042;6.812;2022-07-31T01:45:17;4.53;;;2.70;;
31966;SDS011;18496;52.042;6.812;2022-07-31T01:47:23;4.53;;;2.80;;
31966;SDS011;18496;52.042;6.812;2022-07-31T01:49:28;12.18;;;2.92;;
31966;SDS011;18496;52.042;6.812;2022-07-31T01:51:33;7.93;;;3.00;;
31966;SDS011;18496;52.042;6.812;2022-07-31T01:53:42;3.70;;;2.78;;
31966;SDS011;18496;52.042;6.812;2022-07-31T01:55:51;2.92;;;2.50;;
31966;SDS011;18496;52.042;6.812;2022-07-31T01:57:57;11.48;;;3.00;;
31966;SDS011;18496;52.042;6.812;2022-07-31T02:00:03;6.05;;;3.13;;
31966;SDS011;18496;52.042;6.812;2022-07-31T02:02:19;6.60;;;3.70;;
31966;SDS011;18496;52.042;6.812;2022-07-31T02:04:25;8.32;;;3.08;;
31966;SDS011;18496;52.042;6.812;2022-07-31T02:06:30;7.55;;;3.42;;
31966;SDS011;18496;52.042;6.812;2022-07-31T02:08:36;5.40;;;3.30;;
31966;SDS011;18496;52.042;6.812;2022-07-31T02:10:41;5.70;;;3.45;;
31966;SDS011;18496;52.042;6.812;2022-07-31T02:12:47;5.45;;;3.10;;
31966;SDS011;18496;52.042;6.812;2022-07-31T02:14:51;6.85;;;3.38;;
31966;SDS011;18496;52.042;6.812;2022-07-31T02:16:55;7.22;;;3.60;;
31966;SDS011;18496;52.042;6.812;2022-07-31T02:19:14;3.83;;;3.30;;
31966;SDS011;18496;52.042;6.812;2022-07-31T02:21:22;4.63;;;3.22;;
31966;SDS011;18496;52.042;6.812;2022-07-31T02:23:28;8.13;;;3.40;;
31966;SDS011;18496;52.042;6.812;2022-07-31T02:25:31;6.85;;;3.78;;
31966;SDS011;18496;52.042;6.812;2022-07-31T02:27:40;4.57;;;3.42;;
31966;SDS011;18496;52.042;6.812;2022-07-31T02:29:49;6.47;;;3.05;;
31966;SDS011;18496;52.042;6.812;2022-07-31T02:31:52;6.35;;;3.30;;
31966;SDS011;18496;52.042;6.812;2022-07-31T02:33:57;11.52;;;3.08;;
31966;SDS011;18496;52.042;6.812;2022-07-31T02:36:02;8.85;;;3.58;;
31966;SDS011;18496;52.042;6.812;2022-07-31T02:38:08;7.80;;;3.38;;
31966;SDS011;18496;52.042;6.812;2022-07-31T02:40:12;5.90;;;3.63;;
31966;SDS011;18496;52.042;6.812;2022-07-31T02:42:17;11.35;;;4.15;;
31966;SDS011;18496;52.042;6.812;2022-07-31T02:44:22;9.35;;;3.13;;
31966;SDS011;18496;52.042;6.812;2022-07-31T02:46:26;5.25;;;3.10;;
31966;SDS011;18496;52.042;6.812;2022-07-31T02:48:31;6.22;;;3.35;;
31966;SDS011;18496;52.042;6.812;2022-07-31T02:50:39;7.72;;;3.38;;
31966;SDS011;18496;52.042;6.812;2022-07-31T02:52:43;3.35;;;2.92;;
31966;SDS011;18496;52.042;6.812;2022-07-31T02:54:49;7.75;;;3.72;;
31966;SDS011;18496;52.042;6.812;2022-07-31T02:56:55;6.47;;;3.40;;
31966;SDS011;18496;52.042;6.812;2022-07-31T02:58:59;6.13;;;3.30;;
31966;SDS011;18496;52.042;6.812;2022-07-31T03:01:12;4.22;;;3.38;;
31966;SDS011;18496;52.042;6.812;2022-07-31T03:03:17;8.25;;;2.92;;
31966;SDS011;18496;52.042;6.812;2022-07-31T03:05:21;4.10;;;3.50;;
31966;SDS011;18496;52.042;6.812;2022-07-31T03:07:25;8.63;;;3.53;;
31966;SDS011;18496;52.042;6.812;2022-07-31T03:09:28;7.07;;;3.38;;
31966;SDS011;18496;52.042;6.812;2022-07-31T03:11:52;6.15;;;3.28;;
31966;SDS011;18496;52.042;6.812;2022-07-31T03:13:59;8.90;;;3.58;;
31966;SDS011;18496;52.042;6.812;2022-07-31T03:16:04;10.27;;;3.50;;
31966;SDS011;18496;52.042;6.812;2022-07-31T03:18:11;5.57;;;3.15;;
31966;SDS011;18496;52.042;6.812;2022-07-31T03:20:20;9.88;;;3.80;;
31966;SDS011;18496;52.042;6.812;2022-07-31T03:22:25;4.90;;;2.42;;
31966;SDS011;18496;52.042;6.812;2022-07-31T03:24:29;5.28;;;3.25;;
31966;SDS011;18496;52.042;6.812;2022-07-31T03:26:33;6.63;;;3.10;;
31966;SDS011;18496;52.042;6.812;2022-07-31T03:28:40;6.00;;;3.17;;
31966;SDS011;18496;52.042;6.812;2022-07-31T03:30:54;5.68;;;3.33;;
31966;SDS011;18496;52.042;6.812;2022-07-31T03:32:59;6.35;;;3.30;;
31966;SDS011;18496;52.042;6.812;2022-07-31T03:35:05;7.78;;;3.72;;
31966;SDS011;18496;52.042;6.812;2022-07-31T03:37:10;4.82;;;3.33;;
31966;SDS011;18496;52.042;6.812;2022-07-31T03:39:13;4.90;;;3.15;;
31966;SDS011;18496;52.042;6.812;2022-07-31T03:41:21;8.20;;;3.78;;
31966;SDS011;18496;52.042;6.812;2022-07-31T03:43:26;9.18;;;3.47;;
31966;SDS011;18496;52.042;6.812;2022-07-31T03:45:35;5.20;;;3.33;;
31966;SDS011;18496;52.042;6.812;2022-07-31T03:47:43;4.68;;;2.65;;
31966;SDS011;18496;52.042;6.812;2022-07-31T03:49:47;4.20;;;2.78;;
31966;SDS011;18496;52.042;6.812;2022-07-31T03:51:51;3.08;;;2.75;;
31966;SDS011;18496;52.042;6.812;2022-07-31T03:53:55;3.83;;;2.97;;
31966;SDS011;18496;52.042;6.812;2022-07-31T03:56:31;4.50;;;3.53;;
31966;SDS011;18496;52.042;6.812;2022-07-31T03:58:35;4.80;;;2.83;;
31966;SDS011;18496;52.042;6.812;2022-07-31T04:00:40;4.45;;;3.03;;
31966;SDS011;18496;52.042;6.812;2022-07-31T04:02:45;3.90;;;2.75;;
31966;SDS011;18496;52.042;6.812;2022-07-31T04:05:18;4.05;;;2.67;;
31966;SDS011;18496;52.042;6.812;2022-07-31T04:07:22;4.90;;;2.72;;
31966;SDS011;18496;52.042;6.812;2022-07-31T04:09:26;6.60;;;3.25;;
31966;SDS011;18496;52.042;6.812;2022-07-31T04:11:31;4.85;;;3.40;;
31966;SDS011;18496;52.042;6.812;2022-07-31T04:13:35;4.35;;;3.70;;
31966;SDS011;18496;52.042;6.812;2022-07-31T04:15:40;6.43;;;3.33;;
31966;SDS011;18496;52.042;6.812;2022-07-31T04:17:43;3.92;;;2.92;;
31966;SDS011;18496;52.042;6.812;2022-07-31T04:19:47;8.32;;;2.88;;
31966;SDS011;18496;52.042;6.812;2022-07-31T04:21:51;5.43;;;3.50;;
31966;SDS011;18496;52.042;6.812;2022-07-31T04:23:55;5.43;;;3.35;;
31966;SDS011;18496;52.042;6.812;2022-07-31T04:26:17;5.15;;;3.10;;
31966;SDS011;18496;52.042;6.812;2022-07-31T04:28:26;7.25;;;3.45;;
31966;SDS011;18496;52.042;6.812;2022-07-31T04:30:30;5.88;;;3.30;;
31966;SDS011;18496;52.042;6.812;2022-07-31T04:32:36;5.63;;;3.22;;
31966;SDS011;18496;52.042;6.812;2022-07-31T04:34:44;5.60;;;3.35;;
31966;SDS011;18496;52.042;6.812;2022-07-31T04:36:48;5.85;;;3.00;;
31966;SDS011;18496;52.042;6.812;2022-07-31T04:38:52;6.00;;;3.55;;
31966;SDS011;18496;52.042;6.812;2022-07-31T04:40:55;4.53;;;3.20;;
31966;SDS011;18496;52.042;6.812;2022-07-31T04:42:59;3.92;;;2.95;;
31966;SDS011;18496;52.042;6.812;2022-07-31T04:45:03;6.57;;;2.88;;
31966;SDS011;18496;52.042;6.812;2022-07-31T04:47:07;3.75;;;2.85;;
31966;SDS011;18496;52.042;6.812;2022-07-31T04:49:17;4.35;;;3.00;;
31966;SDS011;18496;52.042;6.812;2022-07-31T04:51:21;5.43;;;3.15;;
31966;SDS011;18496;52.042;6.812;2022-07-31T04:53:26;4.53;;;3.15;;
31966;SDS011;18496;52.042;6.812;2022-07-31T04:55:29;4.10;;;3.20;;
31966;SDS011;18496;52.042;6.812;2022-07-31T04:57:33;4.85;;;2.97;;
31966;SDS011;18496;52.042;6.812;2022-07-31T04:59:38;5.82;;;3.30;;
31966;SDS011;18496;52.042;6.812;2022-07-31T05:01:41;6.30;;;3.47;;
31966;SDS011;18496;52.042;6.812;2022-07-31T05:03:46;7.20;;;3.03;;
31966;SDS011;18496;52.042;6.812;2022-07-31T05:05:50;4.85;;;2.83;;
31966;SDS011;18496;52.042;6.812;2022-07-31T05:07:54;5.03;;;3.00;;
31966;SDS011;18496;52.042;6.812;2022-07-31T05:10:03;5.97;;;2.85;;
31966;SDS011;18496;52.042;6.812;2022-07-31T05:12:08;6.05;;;2.42;;
31966;SDS011;18496;52.042;6.812;2022-07-31T05:14:12;3.40;;;2.97;;
31966;SDS011;18496;52.042;6.812;2022-07-31T05:16:18;6.95;;;3.15;;
31966;SDS011;18496;52.042;6.812;2022-07-31T05:18:22;5.15;;;2.70;;
31966;SDS011;18496;52.042;6.812;2022-07-31T05:20:45;6.28;;;3.10;;
31966;SDS011;18496;52.042;6.812;2022-07-31T05:23:00;4.80;;;2.65;;
31966;SDS011;18496;52.042;6.812;2022-07-31T05:25:27;7.35;;;3.15;;
31966;SDS011;18496;52.042;6.812;2022-07-31T05:27:31;11.70;;;3.38;;
31966;SDS011;18496;52.042;6.812;2022-07-31T05:29:34;5.50;;;3.58;;
31966;SDS011;18496;52.042;6.812;2022-07-31T05:31:38;6.60;;;3.65;;
31966;SDS011;18496;52.042;6.812;2022-07-31T05:33:43;5.28;;;3.28;;
31966;SDS011;18496;52.042;6.812;2022-07-31T05:35:47;6.32;;;2.67;;
31966;SDS011;18496;52.042;6.812;2022-07-31T05:37:51;6.47;;;3.78;;
31966;SDS011;18496;52.042;6.812;2022-07-31T05:40:00;10.98;;;3.67;;
31966;SDS011;18496;52.042;6.812;2022-07-31T05:42:42;5.85;;;3.40;;
31966;SDS011;18496;52.042;6.812;2022-07-31T05:45:22;6.28;;;3.75;;
31966;SDS011;18496;52.042;6.812;2022-07-31T05:47:26;6.43;;;3.45;;
31966;SDS011;18496;52.042;6.812;2022-07-31T05:49:29;7.13;;;3.65;;
31966;SDS011;18496;52.042;6.812;2022-07-31T05:51:36;10.25;;;4.20;;
31966;SDS011;18496;52.042;6.812;2022-07-31T05:53:40;14.82;;;4.43;;
31966;SDS011;18496;52.042;6.812;2022-07-31T05:56:03;8.38;;;4.10;;
31966;SDS011;18496;52.042;6.812;2022-07-31T05:58:25;5.18;;;3.85;;
31966;SDS011;18496;52.042;6.812;2022-07-31T06:00:28;5.07;;;3.90;;
31966;SDS011;18496;52.042;6.812;2022-07-31T06:02:32;5.72;;;4.07;;
31966;SDS011;18496;52.042;6.812;2022-07-31T06:04:44;9.07;;;4.63;;
31966;SDS011;18496;52.042;6.812;2022-07-31T06:06:48;6.60;;;4.22;;
31966;SDS011;18496;52.042;6.812;2022-07-31T06:08:52;14.93;;;4.75;;
31966;SDS011;18496;52.042;6.812;2022-07-31T06:10:57;7.38;;;4.68;;
31966;SDS011;18496;52.042;6.812;2022-07-31T06:13:01;10.02;;;4.43;;
31966;SDS011;18496;52.042;6.812;2022-07-31T06:15:05;8.77;;;6.20;;
31966;SDS011;18496;52.042;6.812;2022-07-31T06:17:15;11.82;;;5.22;;
31966;SDS011;18496;52.042;6.812;2022-07-31T06:19:19;14.43;;;6.10;;
31966;SDS011;18496;52.042;6.812;2022-07-31T06:21:23;11.15;;;6.20;;
31966;SDS011;18496;52.042;6.812;2022-07-31T06:23:27;12.85;;;7.05;;
31966;SDS011;18496;52.042;6.812;2022-07-31T06:25:38;10.75;;;5.97;;
31966;SDS011;18496;52.042;6.812;2022-07-31T06:27:41;9.70;;;6.30;;
31966;SDS011;18496;52.042;6.812;2022-07-31T06:29:45;16.40;;;8.10;;
31966;SDS011;18496;52.042;6.812;2022-07-31T06:31:49;14.43;;;7.80;;
31966;SDS011;18496;52.042;6.812;2022-07-31T06:33:52;11.32;;;7.78;;
31966;SDS011;18496;52.042;6.812;2022-07-31T06:36:00;13.10;;;7.15;;
31966;SDS011;18496;52.042;6.812;2022-07-31T06:38:18;15.57;;;8.00;;
31966;SDS011;18496;52.042;6.812;2022-07-31T06:40:44;12.80;;;7.55;;
31966;SDS011;18496;52.042;6.812;2022-07-31T06:43:02;17.20;;;8.77;;
31966;SDS011;18496;52.042;6.812;2022-07-31T06:45:41;16.33;;;8.13;;
31966;SDS011;18496;52.042;6.812;2022-07-31T06:48:05;17.15;;;8.43;;
31966;SDS011;18496;52.042;6.812;2022-07-31T06:50:17;16.35;;;8.23;;
31966;SDS011;18496;52.042;6.812;2022-07-31T06:52:31;17.30;;;8.60;;
31966;SDS011;18496;52.042;6.812;2022-07-31T06:54:35;11.30;;;9.15;;
31966;SDS011;18496;52.042;6.812;2022-07-31T06:56:39;15.80;;;8.93;;
31966;SDS011;18496;52.042;6.812;2022-07-31T06:58:43;14.02;;;8.52;;
31966;SDS011;18496;52.042;6.812;2022-07-31T07:00:47;14.55;;;9.70;;
31966;SDS011;18496;52.042;6.812;2022-07-31T07:02:50;19.45;;;10.30;;
31966;SDS011;18496;52.042;6.812;2022-07-31T07:04:54;18.08;;;10.23;;
31966;SDS011;18496;52.042;6.812;2022-07-31T07:06:58;17.67;;;11.02;;
31966;SDS011;18496;52.042;6.812;2022-07-31T07:09:01;16.45;;;10.85;;
31966;SDS011;18496;52.042;6.812;2022-07-31T07:11:05;21.10;;;11.90;;
31966;SDS011;18496;52.042;6.812;2022-07-31T07:13:12;21.92;;;11.68;;
31966;SDS011;18496;52.042;6.812;2022-07-31T07:15:17;16.85;;;11.00;;
31966;SDS011;18496;52.042;6.812;2022-07-31T07:17:21;25.35;;;11.27;;
31966;SDS011;18496;52.042;6.812;2022-07-31T07:19:24;17.42;;;10.70;;
31966;SDS011;18496;52.042;6.812;2022-07-31T07:21:28;15.05;;;10.82;;
31966;SDS011;18496;52.042;6.812;2022-07-31T07:23:32;16.88;;;10.63;;
31966;SDS011;18496;52.042;6.812;2022-07-31T07:25:54;20.23;;;11.73;;
31966;SDS011;18496;52.042;6.812;2022-07-31T07:27:59;19.58;;;11.05;;
31966;SDS011;18496;52.042;6.812;2022-07-31T07:30:03;22.33;;;12.45;;
31966;SDS011;18496;52.042;6.812;2022-07-31T07:32:07;16.85;;;12.10;;
31966;SDS011;18496;52.042;6.812;2022-07-31T07:34:12;22.15;;;12.65;;
31966;SDS011;18496;52.042;6.812;2022-07-31T07:36:15;20.52;;;14.23;;
31966;SDS011;18496;52.042;6.812;2022-07-31T07:38:19;21.35;;;12.95;;
31966;SDS011;18496;52.042;6.812;2022-07-31T07:40:24;23.13;;;13.25;;
31966;SDS011;18496;52.042;6.812;2022-07-31T07:42:28;21.75;;;13.63;;
31966;SDS011;18496;52.042;6.812;2022-07-31T07:44:32;24.70;;;13.65;;
31966;SDS011;18496;52.042;6.812;2022-07-31T07:46:36;27.77;;;15.43;;
31966;SDS011;18496;52.042;6.812;2022-07-31T07:48:41;28.05;;;14.95;;
31966;SDS011;18496;52.042;6.812;2022-07-31T07:50:53;23.80;;;13.75;;
31966;SDS011;18496;52.042;6.812;2022-07-31T07:53:07;21.55;;;14.00;;
31966;SDS011;18496;52.042;6.812;2022-07-31T07:55:30;21.60;;;14.45;;
31966;SDS011;18496;52.042;6.812;2022-07-31T07:57:52;24.38;;;14.43;;
31966;SDS011;18496;52.042;6.812;2022-07-31T08:00:15;26.20;;;15.00;;
31966;SDS011;18496;52.042;6.812;2022-07-31T08:02:46;32.10;;;15.07;;
31966;SDS011;18496;52.042;6.812;2022-07-31T08:04:51;23.20;;;15.68;;
31966;SDS011;18496;52.042;6.812;2022-07-31T08:06:56;29.73;;;15.73;;
31966;SDS011;18496;52.042;6.812;2022-07-31T08:09:02;24.45;;;14.43;;
31966;SDS011;18496;52.042;6.812;2022-07-31T08:11:32;22.98;;;15.10;;
31966;SDS011;18496;52.042;6.812;2022-07-31T08:13:47;27.88;;;14.60;;
31966;SDS011;18496;52.042;6.812;2022-07-31T08:16:17;24.17;;;14.38;;
31966;SDS011;18496;52.042;6.812;2022-07-31T08:18:26;26.88;;;14.73;;
31966;SDS011;18496;52.042;6.812;2022-07-31T08:20:30;27.10;;;14.00;;
31966;SDS011;18496;52.042;6.812;2022-07-31T08:22:33;30.60;;;13.10;;
31966;SDS011;18496;52.042;6.812;2022-07-31T08:24:38;24.02;;;12.68;;
31966;SDS011;18496;52.042;6.812;2022-07-31T08:26:42;21.33;;;12.73;;
31966;SDS011;18496;52.042;6.812;2022-07-31T08:29:04;20.42;;;12.27;;
31966;SDS011;18496;52.042;6.812;2022-07-31T08:31:08;21.60;;;12.98;;
31966;SDS011;18496;52.042;6.812;2022-07-31T08:33:24;24.33;;;13.13;;
31966;SDS011;18496;52.042;6.812;2022-07-31T08:35:31;20.77;;;12.27;;
31966;SDS011;18496;52.042;6.812;2022-07-31T08:37:35;23.88;;;13.27;;
31966;SDS011;18496;52.042;6.812;2022-07-31T08:39:39;32.35;;;13.88;;
31966;SDS011;18496;52.042;6.812;2022-07-31T08:41:43;23.27;;;13.85;;
31966;SDS011;18496;52.042;6.812;2022-07-31T08:43:47;19.40;;;12.98;;
31966;SDS011;18496;52.042;6.812;2022-07-31T08:45:51;22.45;;;13.27;;
31966;SDS011;18496;52.042;6.812;2022-07-31T08:48:02;18.30;;;11.60;;
31966;SDS011;18496;52.042;6.812;2022-07-31T08:50:17;21.95;;;12.23;;
31966;SDS011;18496;52.042;6.812;2022-07-31T08:52:22;15.75;;;10.63;;
31966;SDS011;18496;52.042;6.812;2022-07-31T08:55:05;16.10;;;11.25;;
31966;SDS011;18496;52.042;6.812;2022-07-31T08:57:11;24.10;;;12.23;;
31966;SDS011;18496;52.042;6.812;2022-07-31T08:59:16;16.08;;;10.75;;
31966;SDS011;18496;52.042;6.812;2022-07-31T09:01:20;20.92;;;11.48;;
31966;SDS011;18496;52.042;6.812;2022-07-31T09:03:25;21.10;;;11.98;;
31966;SDS011;18496;52.042;6.812;2022-07-31T09:05:35;18.75;;;11.02;;
31966;SDS011;18496;52.042;6.812;2022-07-31T09:07:41;21.05;;;12.60;;
31966;SDS011;18496;52.042;6.812;2022-07-31T09:09:45;29.63;;;12.30;;
31966;SDS011;18496;52.042;6.812;2022-07-31T09:11:50;18.23;;;10.93;;
31966;SDS011;18496;52.042;6.812;2022-07-31T09:14:24;15.77;;;10.10;;
31966;SDS011;18496;52.042;6.812;2022-07-31T09:16:44;20.35;;;10.05;;
31966;SDS011;18496;52.042;6.812;2022-07-31T09:19:03;14.18;;;8.85;;
31966;SDS011;18496;52.042;6.812;2022-07-31T09:21:07;16.35;;;9.57;;
31966;SDS011;18496;52.042;6.812;2022-07-31T09:23:11;18.55;;;9.88;;
31966;SDS011;18496;52.042;6.812;2022-07-31T09:25:17;13.52;;;8.93;;
31966;SDS011;18496;52.042;6.812;2022-07-31T09:27:26;15.88;;;8.35;;
31966;SDS011;18496;52.042;6.812;2022-07-31T09:29:34;12.25;;;7.82;;
31966;SDS011;18496;52.042;6.812;2022-07-31T09:31:45;13.18;;;8.25;;
31966;SDS011;18496;52.042;6.812;2022-07-31T09:34:02;9.32;;;6.40;;
31966;SDS011;18496;52.042;6.812;2022-07-31T09:36:12;13.27;;;6.60;;
31966;SDS011;18496;52.042;6.812;2022-07-31T09:38:27;12.88;;;6.32;;
31966;SDS011;18496;52.042;6.812;2022-07-31T09:40:54;7.05;;;5.47;;
31966;SDS011;18496;52.042;6.812;2022-07-31T09:43:23;9.40;;;5.53;;
31966;SDS011;18496;52.042;6.812;2022-07-31T09:45:27;7.80;;;5.50;;
31966;SDS011;18496;52.042;6.812;2022-07-31T09:47:31;6.65;;;4.75;;
31966;SDS011;18496;52.042;6.812;2022-07-31T09:49:37;13.13;;;5.75;;
31966;SDS011;18496;52.042;6.812;2022-07-31T09:51:43;12.52;;;5.15;;
31966;SDS011;18496;52.042;6.812;2022-07-31T09:53:52;10.00;;;5.22;;
31966;SDS011;18496;52.042;6.812;2022-07-31T09:56:31;11.25;;;5.75;;
31966;SDS011;18496;52.042;6.812;2022-07-31T09:58:40;8.60;;;5.43;;
31966;SDS011;18496;52.042;6.812;2022-07-31T10:00:53;14.95;;;5.82;;
31966;SDS011;18496;52.042;6.812;2022-07-31T10:02:58;8.95;;;5.53;;
31966;SDS011;18496;52.042;6.812;2022-07-31T10:05:03;8.25;;;5.78;;
31966;SDS011;18496;52.042;6.812;2022-07-31T10:07:09;7.78;;;5.55;;
31966;SDS011;18496;52.042;6.812;2022-07-31T10:09:14;6.88;;;4.57;;
31966;SDS011;18496;52.042;6.812;2022-07-31T10:11:31;7.15;;;5.03;;
31966;SDS011;18496;52.042;6.812;2022-07-31T10:13:52;7.73;;;5.10;;
31966;SDS011;18496;52.042;6.812;2022-07-31T10:16:02;9.48;;;4.57;;
31966;SDS011;18496;52.042;6.812;2022-07-31T10:18:28;12.07;;;5.38;;
31966;SDS011;18496;52.042;6.812;2022-07-31T10:20:48;7.97;;;5.20;;
31966;SDS011;18496;52.042;6.812;2022-07-31T10:23:12;8.82;;;5.68;;
31966;SDS011;18496;52.042;6.812;2022-07-31T10:25:28;15.68;;;5.80;;
31966;SDS011;18496;52.042;6.812;2022-07-31T10:27:34;10.43;;;6.60;;
31966;SDS011;18496;52.042;6.812;2022-07-31T10:29:43;11.02;;;6.57;;
31966;SDS011;18496;52.042;6.812;2022-07-31T10:31:48;10.00;;;6.30;;
31966;SDS011;18496;52.042;6.812;2022-07-31T10:33:52;16.10;;;6.88;;
31966;SDS011;18496;52.042;6.812;2022-07-31T10:39:01;14.73;;;7.30;;
31966;SDS011;18496;52.042;6.812;2022-07-31T10:44:00;10.60;;;6.75;;
31966;SDS011;18496;52.042;6.812;2022-07-31T10:46:26;12.35;;;7.22;;
31966;SDS011;18496;52.042;6.812;2022-07-31T10:48:52;13.88;;;7.03;;
31966;SDS011;18496;52.042;6.812;2022-07-31T10:51:15;12.20;;;7.85;;
31966;SDS011;18496;52.042;6.812;2022-07-31T10:53:51;14.88;;;8.23;;
31966;SDS011;18496;52.042;6.812;2022-07-31T10:56:16;13.35;;;7.65;;
31966;SDS011;18496;52.042;6.812;2022-07-31T10:58:49;17.13;;;8.32;;
31966;SDS011;18496;52.042;6.812;2022-07-31T11:01:13;22.85;;;8.70;;
31966;SDS011;18496;52.042;6.812;2022-07-31T11:03:18;13.55;;;8.60;;
31966;SDS011;18496;52.042;6.812;2022-07-31T11:05:55;17.40;;;9.18;;
31966;SDS011;18496;52.042;6.812;2022-07-31T11:08:38;15.93;;;8.32;;
31966;SDS011;18496;52.042;6.812;2022-07-31T11:10:54;15.88;;;9.43;;
31966;SDS011;18496;52.042;6.812;2022-07-31T11:13:30;13.77;;;8.70;;
31966;SDS011;18496;52.042;6.812;2022-07-31T11:15:49;17.17;;;9.60;;
31966;SDS011;18496;52.042;6.812;2022-07-31T11:18:16;17.48;;;10.60;;
31966;SDS011;18496;52.042;6.812;2022-07-31T11:20:29;17.00;;;10.45;;
31966;SDS011;18496;52.042;6.812;2022-07-31T11:22:33;18.48;;;10.00;;
31966;SDS011;18496;52.042;6.812;2022-07-31T11:24:37;18.55;;;9.43;;
31966;SDS011;18496;52.042;6.812;2022-07-31T11:26:47;18.02;;;9.57;;
31966;SDS011;18496;52.042;6.812;2022-07-31T11:28:55;17.08;;;10.43;;
31966;SDS011;18496;52.042;6.812;2022-07-31T11:30:59;17.52;;;10.32;;
31966;SDS011;18496;52.042;6.812;2022-07-31T11:33:08;20.85;;;10.55;;
31966;SDS011;18496;52.042;6.812;2022-07-31T11:35:11;15.57;;;9.73;;
31966;SDS011;18496;52.042;6.812;2022-07-31T11:37:26;16.95;;;10.20;;
31966;SDS011;18496;52.042;6.812;2022-07-31T11:39:32;17.33;;;9.90;;
31966;SDS011;18496;52.042;6.812;2022-07-31T11:41:36;18.77;;;9.65;;
31966;SDS011;18496;52.042;6.812;2022-07-31T11:43:45;17.85;;;10.27;;
31966;SDS011;18496;52.042;6.812;2022-07-31T11:45:53;15.07;;;9.20;;
31966;SDS011;18496;52.042;6.812;2022-07-31T11:47:57;15.10;;;9.50;;
31966;SDS011;18496;52.042;6.812;2022-07-31T11:50:01;13.43;;;8.98;;
31966;SDS011;18496;52.042;6.812;2022-07-31T11:52:07;14.02;;;9.77;;
31966;SDS011;18496;52.042;6.812;2022-07-31T11:54:21;23.25;;;8.30;;
31966;SDS011;18496;52.042;6.812;2022-07-31T11:56:26;13.50;;;7.82;;
31966;SDS011;18496;52.042;6.812;2022-07-31T11:58:30;11.15;;;8.02;;
31966;SDS011;18496;52.042;6.812;2022-07-31T12:00:33;10.88;;;7.82;;
31966;SDS011;18496;52.042;6.812;2022-07-31T12:02:41;11.60;;;8.05;;
31966;SDS011;18496;52.042;6.812;2022-07-31T12:04:45;13.68;;;9.00;;
31966;SDS011;18496;52.042;6.812;2022-07-31T12:06:54;9.07;;;6.93;;
31966;SDS011;18496;52.042;6.812;2022-07-31T12:08:58;9.52;;;7.28;;
31966;SDS011;18496;52.042;6.812;2022-07-31T12:11:03;13.10;;;7.72;;
31966;SDS011;18496;52.042;6.812;2022-07-31T12:13:11;10.27;;;7.55;;
31966;SDS011;18496;52.042;6.812;2022-07-31T12:15:16;17.30;;;7.95;;
31966;SDS011;18496;52.042;6.812;2022-07-31T12:17:21;13.50;;;7.05;;
31966;SDS011;18496;52.042;6.812;2022-07-31T12:19:25;8.68;;;6.80;;
31966;SDS011;18496;52.042;6.812;2022-07-31T12:21:34;9.02;;;6.35;;
31966;SDS011;18496;52.042;6.812;2022-07-31T12:23:44;9.45;;;6.95;;
31966;SDS011;18496;52.042;6.812;2022-07-31T12:25:50;14.23;;;7.15;;
31966;SDS011;18496;52.042;6.812;2022-07-31T12:27:54;8.75;;;7.10;;
31966;SDS011;18496;52.042;6.812;2022-07-31T12:29:58;12.63;;;7.43;;
31966;SDS011;18496;52.042;6.812;2022-07-31T12:32:02;10.45;;;7.00;;
31966;SDS011;18496;52.042;6.812;2022-07-31T12:34:07;10.93;;;5.18;;
31966;SDS011;18496;52.042;6.812;2022-07-31T12:36:14;9.43;;;6.47;;
31966;SDS011;18496;52.042;6.812;2022-07-31T12:38:22;9.60;;;6.85;;
31966;SDS011;18496;52.042;6.812;2022-07-31T12:40:27;8.52;;;6.53;;
31966;SDS011;18496;52.042;6.812;2022-07-31T12:42:32;10.75;;;7.20;;
31966;SDS011;18496;52.042;6.812;2022-07-31T12:44:46;10.95;;;7.07;;
31966;SDS011;18496;52.042;6.812;2022-07-31T12:46:53;10.20;;;6.93;;
31966;SDS011;18496;52.042;6.812;2022-07-31T12:48:57;10.80;;;7.47;;
31966;SDS011;18496;52.042;6.812;2022-07-31T12:51:00;9.13;;;6.43;;
31966;SDS011;18496;52.042;6.812;2022-07-31T12:53:04;11.90;;;6.70;;
31966;SDS011;18496;52.042;6.812;2022-07-31T12:55:08;11.27;;;7.13;;
31966;SDS011;18496;52.042;6.812;2022-07-31T12:57:12;8.88;;;6.40;;
31966;SDS011;18496;52.042;6.812;2022-07-31T12:59:16;11.70;;;6.93;;